Tyrone, Colorado
Current Conditions -  °F | °C
As of 1:54 AM on Tuesday 21 Oct 2014 (Local Time) from KTAD Reporting Station
Clear Clear  
Wind Chill: 11°   Ceiling: Unl
Heat Index: 11°   Visibility: 10mi
Dew Point:   Wind: 12mph
Humidity: 63%   Direction: 240°WSW
Pressure: 30.14"   Gusts: NA
Location:  37.5307°N, 104.063°W
Report Text: KTAD 210754Z AUTO 24010KT 10SM CLR 11/04 A3014 RMK AO2 SLP144 T01110044
Loading
Personal Weather Stations






























Interactive Weather Map
Tropical Storm Tracking
New forecast layout! Learn more

10-Day Weather Forecast

Advertisements
Track Severe Weather on mobile